sensor_id;sensor_type;location;lat;lon;timestamp;P1;durP1;ratioP1;P2;durP2;ratioP2
16524;SDS011;8375;33.594;-117.718;2022-12-10T00:01:44;3.83;;;0.80;;
16524;SDS011;8375;33.594;-117.718;2022-12-10T00:04:16;2.43;;;1.00;;
16524;SDS011;8375;33.594;-117.718;2022-12-10T00:06:46;2.43;;;1.07;;
16524;SDS011;8375;33.594;-117.718;2022-12-10T00:09:15;1.07;;;0.70;;
16524;SDS011;8375;33.594;-117.718;2022-12-10T00:11:45;1.97;;;0.60;;
16524;SDS011;8375;33.594;-117.718;2022-12-10T00:14:14;13.30;;;3.27;;
16524;SDS011;8375;33.594;-117.718;2022-12-10T00:16:43;4.57;;;1.07;;
16524;SDS011;8375;33.594;-117.718;2022-12-10T00:19:12;9.67;;;1.57;;
16524;SDS011;8375;33.594;-117.718;2022-12-10T00:21:42;4.20;;;0.90;;
16524;SDS011;8375;33.594;-117.718;2022-12-10T00:24:12;1.40;;;0.60;;
16524;SDS011;8375;33.594;-117.718;2022-12-10T00:26:41;2.93;;;0.80;;
16524;SDS011;8375;33.594;-117.718;2022-12-10T00:29:11;2.70;;;0.80;;
16524;SDS011;8375;33.594;-117.718;2022-12-10T00:31:40;2.90;;;1.00;;
16524;SDS011;8375;33.594;-117.718;2022-12-10T00:34:09;2.63;;;0.93;;
16524;SDS011;8375;33.594;-117.718;2022-12-10T00:36:42;2.80;;;1.47;;
16524;SDS011;8375;33.594;-117.718;2022-12-10T00:39:14;4.27;;;0.90;;
16524;SDS011;8375;33.594;-117.718;2022-12-10T00:41:44;4.53;;;1.10;;
16524;SDS011;8375;33.594;-117.718;2022-12-10T00:44:12;2.20;;;1.00;;
16524;SDS011;8375;33.594;-117.718;2022-12-10T00:46:42;1.80;;;0.90;;
16524;SDS011;8375;33.594;-117.718;2022-12-10T00:49:10;3.33;;;0.97;;
16524;SDS011;8375;33.594;-117.718;2022-12-10T00:51:40;2.70;;;1.00;;
16524;SDS011;8375;33.594;-117.718;2022-12-10T00:54:10;2.97;;;0.90;;
16524;SDS011;8375;33.594;-117.718;2022-12-10T00:56:39;3.30;;;1.00;;
16524;SDS011;8375;33.594;-117.718;2022-12-10T00:59:08;2.63;;;1.00;;
16524;SDS011;8375;33.594;-117.718;2022-12-10T01:01:37;2.83;;;1.10;;
16524;SDS011;8375;33.594;-117.718;2022-12-10T01:04:08;3.07;;;1.03;;
16524;SDS011;8375;33.594;-117.718;2022-12-10T01:06:40;2.90;;;2.60;;
16524;SDS011;8375;33.594;-117.718;2022-12-10T01:09:14;3.10;;;1.63;;
16524;SDS011;8375;33.594;-117.718;2022-12-10T01:11:46;9.23;;;6.57;;
16524;SDS011;8375;33.594;-117.718;2022-12-10T01:14:18;25.20;;;17.10;;
16524;SDS011;8375;33.594;-117.718;2022-12-10T01:16:53;34.17;;;22.87;;
16524;SDS011;8375;33.594;-117.718;2022-12-10T01:19:24;16.80;;;11.23;;
16524;SDS011;8375;33.594;-117.718;2022-12-10T01:21:54;9.30;;;4.93;;
16524;SDS011;8375;33.594;-117.718;2022-12-10T01:24:26;5.20;;;2.20;;
16524;SDS011;8375;33.594;-117.718;2022-12-10T01:26:56;5.60;;;2.60;;
16524;SDS011;8375;33.594;-117.718;2022-12-10T01:29:26;4.47;;;2.10;;
16524;SDS011;8375;33.594;-117.718;2022-12-10T01:31:55;6.20;;;3.20;;
16524;SDS011;8375;33.594;-117.718;2022-12-10T01:34:26;9.97;;;6.03;;
16524;SDS011;8375;33.594;-117.718;2022-12-10T01:36:55;18.60;;;10.13;;
16524;SDS011;8375;33.594;-117.718;2022-12-10T02:40:34;3.47;;;2.30;;
16524;SDS011;8375;33.594;-117.718;2022-12-10T02:43:05;4.57;;;2.30;;
16524;SDS011;8375;33.594;-117.718;2022-12-10T02:45:36;6.90;;;2.77;;
16524;SDS011;8375;33.594;-117.718;2022-12-10T02:48:06;4.70;;;2.50;;
16524;SDS011;8375;33.594;-117.718;2022-12-10T02:50:35;6.07;;;2.63;;
16524;SDS011;8375;33.594;-117.718;2022-12-10T02:53:03;2.30;;;2.10;;
16524;SDS011;8375;33.594;-117.718;2022-12-10T02:55:37;3.43;;;2.23;;
16524;SDS011;8375;33.594;-117.718;2022-12-10T02:58:15;4.43;;;2.17;;
16524;SDS011;8375;33.594;-117.718;2022-12-10T03:00:50;5.77;;;2.50;;
16524;SDS011;8375;33.594;-117.718;2022-12-10T03:03:33;5.53;;;2.90;;
16524;SDS011;8375;33.594;-117.718;2022-12-10T03:06:11;5.00;;;2.37;;
16524;SDS011;8375;33.594;-117.718;2022-12-10T03:08:46;4.20;;;2.43;;
16524;SDS011;8375;33.594;-117.718;2022-12-10T03:11:20;3.57;;;2.47;;
16524;SDS011;8375;33.594;-117.718;2022-12-10T03:13:53;3.40;;;2.40;;
16524;SDS011;8375;33.594;-117.718;2022-12-10T03:16:28;6.03;;;2.60;;
16524;SDS011;8375;33.594;-117.718;2022-12-10T03:19:03;3.33;;;2.20;;
16524;SDS011;8375;33.594;-117.718;2022-12-10T03:21:34;3.80;;;2.40;;
16524;SDS011;8375;33.594;-117.718;2022-12-10T03:24:07;4.63;;;2.60;;
16524;SDS011;8375;33.594;-117.718;2022-12-10T03:26:39;2.83;;;2.40;;
16524;SDS011;8375;33.594;-117.718;2022-12-10T03:29:08;3.87;;;2.23;;
16524;SDS011;8375;33.594;-117.718;2022-12-10T03:31:40;3.47;;;2.53;;
16524;SDS011;8375;33.594;-117.718;2022-12-10T03:34:10;3.60;;;2.70;;
16524;SDS011;8375;33.594;-117.718;2022-12-10T03:36:39;6.03;;;2.80;;
16524;SDS011;8375;33.594;-117.718;2022-12-10T03:39:09;5.00;;;3.13;;
16524;SDS011;8375;33.594;-117.718;2022-12-10T03:41:40;5.93;;;3.07;;
16524;SDS011;8375;33.594;-117.718;2022-12-10T03:44:09;6.47;;;3.70;;
16524;SDS011;8375;33.594;-117.718;2022-12-10T03:46:37;4.93;;;3.40;;
16524;SDS011;8375;33.594;-117.718;2022-12-10T03:49:06;5.30;;;3.73;;
16524;SDS011;8375;33.594;-117.718;2022-12-10T03:51:35;5.30;;;3.83;;
16524;SDS011;8375;33.594;-117.718;2022-12-10T03:54:04;6.83;;;3.47;;
16524;SDS011;8375;33.594;-117.718;2022-12-10T03:56:32;4.53;;;2.80;;
16524;SDS011;8375;33.594;-117.718;2022-12-10T03:59:03;5.33;;;3.00;;
16524;SDS011;8375;33.594;-117.718;2022-12-10T04:01:31;5.60;;;2.87;;
16524;SDS011;8375;33.594;-117.718;2022-12-10T04:04:00;7.00;;;3.30;;
16524;SDS011;8375;33.594;-117.718;2022-12-10T04:06:30;9.00;;;3.10;;
16524;SDS011;8375;33.594;-117.718;2022-12-10T04:08:58;6.40;;;3.50;;
16524;SDS011;8375;33.594;-117.718;2022-12-10T04:11:27;4.40;;;3.13;;
16524;SDS011;8375;33.594;-117.718;2022-12-10T04:13:56;6.50;;;3.43;;
16524;SDS011;8375;33.594;-117.718;2022-12-10T04:16:43;6.10;;;3.40;;
16524;SDS011;8375;33.594;-117.718;2022-12-10T04:19:12;6.80;;;3.63;;
16524;SDS011;8375;33.594;-117.718;2022-12-10T04:21:42;4.70;;;3.40;;
16524;SDS011;8375;33.594;-117.718;2022-12-10T04:24:29;5.50;;;3.67;;
16524;SDS011;8375;33.594;-117.718;2022-12-10T04:27:16;8.57;;;4.30;;
16524;SDS011;8375;33.594;-117.718;2022-12-10T04:29:47;3.93;;;3.47;;
16524;SDS011;8375;33.594;-117.718;2022-12-10T04:32:18;7.77;;;3.87;;
16524;SDS011;8375;33.594;-117.718;2022-12-10T04:34:47;4.83;;;3.90;;
16524;SDS011;8375;33.594;-117.718;2022-12-10T04:37:16;4.07;;;3.57;;
16524;SDS011;8375;33.594;-117.718;2022-12-10T04:39:46;4.50;;;3.73;;
16524;SDS011;8375;33.594;-117.718;2022-12-10T04:42:16;5.23;;;3.73;;
16524;SDS011;8375;33.594;-117.718;2022-12-10T04:44:45;7.97;;;4.00;;
16524;SDS011;8375;33.594;-117.718;2022-12-10T04:47:14;7.17;;;3.87;;
16524;SDS011;8375;33.594;-117.718;2022-12-10T04:49:45;7.27;;;4.23;;
16524;SDS011;8375;33.594;-117.718;2022-12-10T04:52:14;6.63;;;3.50;;
16524;SDS011;8375;33.594;-117.718;2022-12-10T04:54:43;5.77;;;4.37;;
16524;SDS011;8375;33.594;-117.718;2022-12-10T04:57:12;4.80;;;4.30;;
16524;SDS011;8375;33.594;-117.718;2022-12-10T04:59:41;7.43;;;4.30;;
16524;SDS011;8375;33.594;-117.718;2022-12-10T05:02:09;5.87;;;4.77;;
16524;SDS011;8375;33.594;-117.718;2022-12-10T05:04:38;5.17;;;4.03;;
16524;SDS011;8375;33.594;-117.718;2022-12-10T05:07:08;5.63;;;4.50;;
16524;SDS011;8375;33.594;-117.718;2022-12-10T05:09:37;6.17;;;4.97;;
16524;SDS011;8375;33.594;-117.718;2022-12-10T05:12:06;9.47;;;6.43;;
16524;SDS011;8375;33.594;-117.718;2022-12-10T05:14:35;10.00;;;7.50;;
16524;SDS011;8375;33.594;-117.718;2022-12-10T05:17:04;12.10;;;7.70;;
16524;SDS011;8375;33.594;-117.718;2022-12-10T05:19:32;12.40;;;7.93;;
16524;SDS011;8375;33.594;-117.718;2022-12-10T05:22:01;11.20;;;8.60;;
16524;SDS011;8375;33.594;-117.718;2022-12-10T05:24:48;10.80;;;8.67;;
16524;SDS011;8375;33.594;-117.718;2022-12-10T05:27:17;8.87;;;6.57;;
16524;SDS011;8375;33.594;-117.718;2022-12-10T05:29:45;9.53;;;5.27;;
16524;SDS011;8375;33.594;-117.718;2022-12-10T05:32:14;5.90;;;5.30;;
16524;SDS011;8375;33.594;-117.718;2022-12-10T05:34:42;7.90;;;5.57;;
16524;SDS011;8375;33.594;-117.718;2022-12-10T05:37:11;7.73;;;5.13;;
16524;SDS011;8375;33.594;-117.718;2022-12-10T05:39:40;10.00;;;6.13;;
16524;SDS011;8375;33.594;-117.718;2022-12-10T05:42:10;7.80;;;5.73;;
16524;SDS011;8375;33.594;-117.718;2022-12-10T05:44:38;8.57;;;6.17;;
16524;SDS011;8375;33.594;-117.718;2022-12-10T05:47:07;9.93;;;6.53;;
16524;SDS011;8375;33.594;-117.718;2022-12-10T05:49:36;10.43;;;6.90;;
16524;SDS011;8375;33.594;-117.718;2022-12-10T05:52:05;9.07;;;7.07;;
16524;SDS011;8375;33.594;-117.718;2022-12-10T05:54:34;13.40;;;8.40;;
16524;SDS011;8375;33.594;-117.718;2022-12-10T05:57:03;13.17;;;8.10;;
16524;SDS011;8375;33.594;-117.718;2022-12-10T05:59:33;13.23;;;7.63;;
16524;SDS011;8375;33.594;-117.718;2022-12-10T06:02:02;12.77;;;8.00;;
16524;SDS011;8375;33.594;-117.718;2022-12-10T06:04:30;12.37;;;8.27;;
16524;SDS011;8375;33.594;-117.718;2022-12-10T06:06:59;13.20;;;7.47;;
16524;SDS011;8375;33.594;-117.718;2022-12-10T06:09:28;7.73;;;6.33;;
16524;SDS011;8375;33.594;-117.718;2022-12-10T06:11:56;10.63;;;6.97;;
16524;SDS011;8375;33.594;-117.718;2022-12-10T06:14:25;8.57;;;6.13;;
16524;SDS011;8375;33.594;-117.718;2022-12-10T06:16:55;10.93;;;6.70;;
16524;SDS011;8375;33.594;-117.718;2022-12-10T06:19:24;7.23;;;6.27;;
16524;SDS011;8375;33.594;-117.718;2022-12-10T06:21:52;11.07;;;6.90;;
16524;SDS011;8375;33.594;-117.718;2022-12-10T06:24:21;7.80;;;6.47;;
16524;SDS011;8375;33.594;-117.718;2022-12-10T06:26:49;10.93;;;6.47;;
16524;SDS011;8375;33.594;-117.718;2022-12-10T06:29:18;8.50;;;6.20;;
16524;SDS011;8375;33.594;-117.718;2022-12-10T06:31:47;9.83;;;6.60;;
16524;SDS011;8375;33.594;-117.718;2022-12-10T06:34:17;8.03;;;6.37;;
16524;SDS011;8375;33.594;-117.718;2022-12-10T06:36:45;7.20;;;5.37;;
16524;SDS011;8375;33.594;-117.718;2022-12-10T06:39:14;9.90;;;5.87;;
16524;SDS011;8375;33.594;-117.718;2022-12-10T06:41:42;7.07;;;6.27;;
16524;SDS011;8375;33.594;-117.718;2022-12-10T06:44:11;7.20;;;5.53;;
16524;SDS011;8375;33.594;-117.718;2022-12-10T06:46:40;8.73;;;5.60;;
16524;SDS011;8375;33.594;-117.718;2022-12-10T06:49:09;7.10;;;6.00;;
16524;SDS011;8375;33.594;-117.718;2022-12-10T06:51:39;6.70;;;5.40;;
16524;SDS011;8375;33.594;-117.718;2022-12-10T06:54:08;6.90;;;5.87;;
16524;SDS011;8375;33.594;-117.718;2022-12-10T06:56:36;7.50;;;6.20;;
16524;SDS011;8375;33.594;-117.718;2022-12-10T06:59:05;6.73;;;6.00;;
16524;SDS011;8375;33.594;-117.718;2022-12-10T07:01:34;9.70;;;6.00;;
16524;SDS011;8375;33.594;-117.718;2022-12-10T07:04:02;8.90;;;6.60;;
16524;SDS011;8375;33.594;-117.718;2022-12-10T07:06:31;7.00;;;5.50;;
16524;SDS011;8375;33.594;-117.718;2022-12-10T07:09:01;7.37;;;5.90;;
16524;SDS011;8375;33.594;-117.718;2022-12-10T07:11:30;9.10;;;6.50;;
16524;SDS011;8375;33.594;-117.718;2022-12-10T07:13:59;13.03;;;6.97;;
16524;SDS011;8375;33.594;-117.718;2022-12-10T07:16:28;7.23;;;5.83;;
16524;SDS011;8375;33.594;-117.718;2022-12-10T07:18:58;14.00;;;6.50;;
16524;SDS011;8375;33.594;-117.718;2022-12-10T07:21:29;9.90;;;6.73;;
16524;SDS011;8375;33.594;-117.718;2022-12-10T07:24:02;7.17;;;6.47;;
16524;SDS011;8375;33.594;-117.718;2022-12-10T07:26:32;10.37;;;6.40;;
16524;SDS011;8375;33.594;-117.718;2022-12-10T07:29:02;11.07;;;6.20;;
16524;SDS011;8375;33.594;-117.718;2022-12-10T07:31:32;9.00;;;6.30;;
16524;SDS011;8375;33.594;-117.718;2022-12-10T07:34:00;8.83;;;6.47;;
16524;SDS011;8375;33.594;-117.718;2022-12-10T07:36:29;8.63;;;6.17;;
16524;SDS011;8375;33.594;-117.718;2022-12-10T07:38:58;8.60;;;5.97;;
16524;SDS011;8375;33.594;-117.718;2022-12-10T07:41:28;8.43;;;6.37;;
16524;SDS011;8375;33.594;-117.718;2022-12-10T07:43:57;6.73;;;6.03;;
16524;SDS011;8375;33.594;-117.718;2022-12-10T07:46:26;6.77;;;6.03;;
16524;SDS011;8375;33.594;-117.718;2022-12-10T07:48:56;6.57;;;5.97;;
16524;SDS011;8375;33.594;-117.718;2022-12-10T07:51:26;7.83;;;6.30;;
16524;SDS011;8375;33.594;-117.718;2022-12-10T07:53:55;8.80;;;5.70;;
16524;SDS011;8375;33.594;-117.718;2022-12-10T07:56:24;6.63;;;5.87;;
16524;SDS011;8375;33.594;-117.718;2022-12-10T07:58:54;7.70;;;5.83;;
16524;SDS011;8375;33.594;-117.718;2022-12-10T08:01:24;9.77;;;6.87;;
16524;SDS011;8375;33.594;-117.718;2022-12-10T08:03:53;9.00;;;6.53;;
16524;SDS011;8375;33.594;-117.718;2022-12-10T08:06:24;9.67;;;6.73;;
16524;SDS011;8375;33.594;-117.718;2022-12-10T08:08:54;10.93;;;7.07;;
16524;SDS011;8375;33.594;-117.718;2022-12-10T08:11:23;11.23;;;7.77;;
16524;SDS011;8375;33.594;-117.718;2022-12-10T08:13:52;11.70;;;8.27;;
16524;SDS011;8375;33.594;-117.718;2022-12-10T08:16:23;9.63;;;7.83;;
16524;SDS011;8375;33.594;-117.718;2022-12-10T08:18:52;12.10;;;8.50;;
16524;SDS011;8375;33.594;-117.718;2022-12-10T08:21:23;11.17;;;7.50;;
16524;SDS011;8375;33.594;-117.718;2022-12-10T08:23:53;10.87;;;8.33;;
16524;SDS011;8375;33.594;-117.718;2022-12-10T08:26:23;9.50;;;8.20;;
16524;SDS011;8375;33.594;-117.718;2022-12-10T08:28:55;10.20;;;8.60;;
16524;SDS011;8375;33.594;-117.718;2022-12-10T08:31:25;13.97;;;8.60;;
16524;SDS011;8375;33.594;-117.718;2022-12-10T08:33:54;10.77;;;9.60;;
16524;SDS011;8375;33.594;-117.718;2022-12-10T08:36:23;13.03;;;9.10;;
16524;SDS011;8375;33.594;-117.718;2022-12-10T08:38:51;11.40;;;9.07;;
16524;SDS011;8375;33.594;-117.718;2022-12-10T08:41:20;10.03;;;8.97;;
16524;SDS011;8375;33.594;-117.718;2022-12-10T08:43:51;12.17;;;10.87;;
16524;SDS011;8375;33.594;-117.718;2022-12-10T08:46:22;11.93;;;10.57;;
16524;SDS011;8375;33.594;-117.718;2022-12-10T08:48:52;11.80;;;8.73;;
16524;SDS011;8375;33.594;-117.718;2022-12-10T08:51:20;8.43;;;7.40;;
16524;SDS011;8375;33.594;-117.718;2022-12-10T08:53:49;9.30;;;8.37;;
16524;SDS011;8375;33.594;-117.718;2022-12-10T08:56:19;9.67;;;7.13;;
16524;SDS011;8375;33.594;-117.718;2022-12-10T08:58:48;9.17;;;7.63;;
16524;SDS011;8375;33.594;-117.718;2022-12-10T09:01:17;9.60;;;7.53;;
16524;SDS011;8375;33.594;-117.718;2022-12-10T09:03:49;8.60;;;7.70;;
16524;SDS011;8375;33.594;-117.718;2022-12-10T09:06:18;10.97;;;7.93;;
16524;SDS011;8375;33.594;-117.718;2022-12-10T09:08:51;9.63;;;7.50;;
16524;SDS011;8375;33.594;-117.718;2022-12-10T09:11:22;12.13;;;8.67;;
16524;SDS011;8375;33.594;-117.718;2022-12-10T09:13:53;11.37;;;8.47;;
16524;SDS011;8375;33.594;-117.718;2022-12-10T09:16:27;10.13;;;8.13;;
16524;SDS011;8375;33.594;-117.718;2022-12-10T09:18:59;12.20;;;8.53;;
16524;SDS011;8375;33.594;-117.718;2022-12-10T09:21:29;12.80;;;9.07;;
16524;SDS011;8375;33.594;-117.718;2022-12-10T09:23:59;10.73;;;8.77;;
16524;SDS011;8375;33.594;-117.718;2022-12-10T09:26:28;10.53;;;9.03;;
16524;SDS011;8375;33.594;-117.718;2022-12-10T09:28:57;11.77;;;8.90;;
16524;SDS011;8375;33.594;-117.718;2022-12-10T09:31:27;16.00;;;9.30;;
16524;SDS011;8375;33.594;-117.718;2022-12-10T09:33:56;10.90;;;9.80;;
16524;SDS011;8375;33.594;-117.718;2022-12-10T09:36:28;13.23;;;9.73;;
16524;SDS011;8375;33.594;-117.718;2022-12-10T09:38:57;11.87;;;9.60;;
16524;SDS011;8375;33.594;-117.718;2022-12-10T09:44:25;11.33;;;8.43;;
16524;SDS011;8375;33.594;-117.718;2022-12-10T09:47:06;11.53;;;8.53;;
16524;SDS011;8375;33.594;-117.718;2022-12-10T09:49:46;11.47;;;8.53;;
16524;SDS011;8375;33.594;-117.718;2022-12-10T09:52:25;9.83;;;7.23;;
16524;SDS011;8375;33.594;-117.718;2022-12-10T09:55:02;12.83;;;9.17;;
16524;SDS011;8375;33.594;-117.718;2022-12-10T09:57:38;10.37;;;7.30;;
16524;SDS011;8375;33.594;-117.718;2022-12-10T10:00:17;12.73;;;8.30;;
16524;SDS011;8375;33.594;-117.718;2022-12-10T10:02:49;12.20;;;8.13;;
16524;SDS011;8375;33.594;-117.718;2022-12-10T10:05:22;11.40;;;8.20;;
16524;SDS011;8375;33.594;-117.718;2022-12-10T10:07:55;10.93;;;7.90;;
16524;SDS011;8375;33.594;-117.718;2022-12-10T10:10:28;11.47;;;8.50;;
16524;SDS011;8375;33.594;-117.718;2022-12-10T10:13:00;9.37;;;8.37;;
16524;SDS011;8375;33.594;-117.718;2022-12-10T10:15:40;9.90;;;7.77;;
16524;SDS011;8375;33.594;-117.718;2022-12-10T10:18:13;9.67;;;8.20;;
16524;SDS011;8375;33.594;-117.718;2022-12-10T10:20:48;13.03;;;9.10;;
16524;SDS011;8375;33.594;-117.718;2022-12-10T10:23:18;8.63;;;7.57;;
16524;SDS011;8375;33.594;-117.718;2022-12-10T10:25:47;9.80;;;7.50;;
16524;SDS011;8375;33.594;-117.718;2022-12-10T10:28:18;8.30;;;7.47;;
16524;SDS011;8375;33.594;-117.718;2022-12-10T10:30:48;9.57;;;7.57;;
16524;SDS011;8375;33.594;-117.718;2022-12-10T10:33:20;8.77;;;7.57;;
16524;SDS011;8375;33.594;-117.718;2022-12-10T10:35:52;8.60;;;7.27;;
16524;SDS011;8375;33.594;-117.718;2022-12-10T10:38:25;8.93;;;7.53;;
16524;SDS011;8375;33.594;-117.718;2022-12-10T10:40:56;9.47;;;6.43;;
16524;SDS011;8375;33.594;-117.718;2022-12-10T10:43:27;8.20;;;7.10;;
16524;SDS011;8375;33.594;-117.718;2022-12-10T10:46:01;8.10;;;7.03;;
16524;SDS011;8375;33.594;-117.718;2022-12-10T10:48:32;8.53;;;7.27;;
16524;SDS011;8375;33.594;-117.718;2022-12-10T10:51:07;10.03;;;7.30;;
16524;SDS011;8375;33.594;-117.718;2022-12-10T10:53:44;12.13;;;7.40;;
16524;SDS011;8375;33.594;-117.718;2022-12-10T10:56:16;8.77;;;7.87;;
16524;SDS011;8375;33.594;-117.718;2022-12-10T10:58:50;13.50;;;7.73;;
16524;SDS011;8375;33.594;-117.718;2022-12-10T11:01:23;9.07;;;7.57;;
16524;SDS011;8375;33.594;-117.718;2022-12-10T11:03:55;9.90;;;8.03;;
16524;SDS011;8375;33.594;-117.718;2022-12-10T11:06:28;9.53;;;7.47;;
16524;SDS011;8375;33.594;-117.718;2022-12-10T11:08:58;11.30;;;8.13;;
16524;SDS011;8375;33.594;-117.718;2022-12-10T11:11:31;8.40;;;6.93;;
16524;SDS011;8375;33.594;-117.718;2022-12-10T11:14:19;10.43;;;7.67;;
16524;SDS011;8375;33.594;-117.718;2022-12-10T11:16:56;8.47;;;7.53;;
16524;SDS011;8375;33.594;-117.718;2022-12-10T11:19:30;9.33;;;7.60;;
16524;SDS011;8375;33.594;-117.718;2022-12-10T11:24:57;9.23;;;7.37;;
16524;SDS011;8375;33.594;-117.718;2022-12-10T11:27:34;12.10;;;9.47;;
16524;SDS011;8375;33.594;-117.718;2022-12-10T11:30:15;9.13;;;8.23;;
16524;SDS011;8375;33.594;-117.718;2022-12-10T11:33:12;13.40;;;9.60;;
16524;SDS011;8375;33.594;-117.718;2022-12-10T11:35:50;10.77;;;8.37;;
16524;SDS011;8375;33.594;-117.718;2022-12-10T11:38:28;13.87;;;9.43;;
16524;SDS011;8375;33.594;-117.718;2022-12-10T11:41:04;10.60;;;8.80;;
16524;SDS011;8375;33.594;-117.718;2022-12-10T11:43:46;11.53;;;9.13;;
16524;SDS011;8375;33.594;-117.718;2022-12-10T11:46:35;9.83;;;8.07;;
16524;SDS011;8375;33.594;-117.718;2022-12-10T11:49:20;13.73;;;8.77;;
16524;SDS011;8375;33.594;-117.718;2022-12-10T11:51:58;11.60;;;8.47;;
16524;SDS011;8375;33.594;-117.718;2022-12-10T11:54:46;11.63;;;8.77;;
16524;SDS011;8375;33.594;-117.718;2022-12-10T11:57:33;10.13;;;8.23;;
16524;SDS011;8375;33.594;-117.718;2022-12-10T12:00:16;11.17;;;7.87;;
16524;SDS011;8375;33.594;-117.718;2022-12-10T12:05:58;9.47;;;8.27;;
16524;SDS011;8375;33.594;-117.718;2022-12-10T12:08:41;8.87;;;6.63;;
16524;SDS011;8375;33.594;-117.718;2022-12-10T12:11:24;9.27;;;7.47;;
16524;SDS011;8375;33.594;-117.718;2022-12-10T12:14:04;9.70;;;7.57;;
16524;SDS011;8375;33.594;-117.718;2022-12-10T12:16:38;9.07;;;7.70;;
16524;SDS011;8375;33.594;-117.718;2022-12-10T12:19:12;9.73;;;7.33;;
16524;SDS011;8375;33.594;-117.718;2022-12-10T12:21:45;9.37;;;7.27;;
16524;SDS011;8375;33.594;-117.718;2022-12-10T12:24:17;10.33;;;8.10;;
16524;SDS011;8375;33.594;-117.718;2022-12-10T12:26:50;7.97;;;7.17;;
16524;SDS011;8375;33.594;-117.718;2022-12-10T12:29:26;9.30;;;7.70;;
16524;SDS011;8375;33.594;-117.718;2022-12-10T12:31:59;10.17;;;7.87;;
16524;SDS011;8375;33.594;-117.718;2022-12-10T12:34:33;9.83;;;7.77;;
16524;SDS011;8375;33.594;-117.718;2022-12-10T12:37:12;13.83;;;8.20;;
16524;SDS011;8375;33.594;-117.718;2022-12-10T12:39:45;9.40;;;7.50;;
16524;SDS011;8375;33.594;-117.718;2022-12-10T12:42:21;9.77;;;8.20;;
16524;SDS011;8375;33.594;-117.718;2022-12-10T12:44:59;9.73;;;8.73;;
16524;SDS011;8375;33.594;-117.718;2022-12-10T12:47:34;10.40;;;8.33;;
16524;SDS011;8375;33.594;-117.718;2022-12-10T12:50:11;11.07;;;9.20;;
16524;SDS011;8375;33.594;-117.718;2022-12-10T12:52:53;11.37;;;9.07;;
16524;SDS011;8375;33.594;-117.718;2022-12-10T12:55:26;10.07;;;8.97;;
16524;SDS011;8375;33.594;-117.718;2022-12-10T12:58:15;11.33;;;8.93;;
16524;SDS011;8375;33.594;-117.718;2022-12-10T13:00:53;10.30;;;8.57;;
16524;SDS011;8375;33.594;-117.718;2022-12-10T13:03:31;12.80;;;9.57;;
16524;SDS011;8375;33.594;-117.718;2022-12-10T13:06:20;13.73;;;9.97;;
16524;SDS011;8375;33.594;-117.718;2022-12-10T13:08:57;12.90;;;9.00;;
16524;SDS011;8375;33.594;-117.718;2022-12-10T13:11:44;12.20;;;9.87;;
16524;SDS011;8375;33.594;-117.718;2022-12-10T13:14:34;12.83;;;9.77;;
16524;SDS011;8375;33.594;-117.718;2022-12-10T13:17:26;11.80;;;9.43;;
16524;SDS011;8375;33.594;-117.718;2022-12-10T13:23:03;12.43;;;10.13;;
16524;SDS011;8375;33.594;-117.718;2022-12-10T13:25:56;12.90;;;10.30;;
16524;SDS011;8375;33.594;-117.718;2022-12-10T13:28:28;20.67;;;10.83;;
16524;SDS011;8375;33.594;-117.718;2022-12-10T13:31:08;16.90;;;10.17;;
16524;SDS011;8375;33.594;-117.718;2022-12-10T13:33:49;12.77;;;10.03;;
16524;SDS011;8375;33.594;-117.718;2022-12-10T13:36:20;12.10;;;9.30;;
16524;SDS011;8375;33.594;-117.718;2022-12-10T13:38:56;13.87;;;9.70;;
16524;SDS011;8375;33.594;-117.718;2022-12-10T13:41:40;9.70;;;8.70;;
16524;SDS011;8375;33.594;-117.718;2022-12-10T13:44:46;11.77;;;8.07;;
16524;SDS011;8375;33.594;-117.718;2022-12-10T13:47:25;8.30;;;7.50;;
16524;SDS011;8375;33.594;-117.718;2022-12-10T13:50:02;10.20;;;7.80;;
16524;SDS011;8375;33.594;-117.718;2022-12-10T13:52:35;9.70;;;7.50;;
16524;SDS011;8375;33.594;-117.718;2022-12-10T13:55:21;8.33;;;6.90;;
16524;SDS011;8375;33.594;-117.718;2022-12-10T14:01:08;10.53;;;8.00;;
16524;SDS011;8375;33.594;-117.718;2022-12-10T14:03:50;9.63;;;8.63;;
16524;SDS011;8375;33.594;-117.718;2022-12-10T14:06:34;11.47;;;7.63;;
16524;SDS011;8375;33.594;-117.718;2022-12-10T14:09:06;10.20;;;7.83;;
16524;SDS011;8375;33.594;-117.718;2022-12-10T14:11:40;10.87;;;8.23;;
16524;SDS011;8375;33.594;-117.718;2022-12-10T14:14:19;11.37;;;7.57;;
16524;SDS011;8375;33.594;-117.718;2022-12-10T14:16:53;9.40;;;7.53;;
16524;SDS011;8375;33.594;-117.718;2022-12-10T14:19:22;10.27;;;8.03;;
16524;SDS011;8375;33.594;-117.718;2022-12-10T14:21:57;9.53;;;7.67;;
16524;SDS011;8375;33.594;-117.718;2022-12-10T14:24:32;8.57;;;7.43;;
16524;SDS011;8375;33.594;-117.718;2022-12-10T14:27:05;9.90;;;7.97;;
16524;SDS011;8375;33.594;-117.718;2022-12-10T14:29:43;12.57;;;8.30;;
16524;SDS011;8375;33.594;-117.718;2022-12-10T14:32:14;9.87;;;8.27;;
16524;SDS011;8375;33.594;-117.718;2022-12-10T14:34:46;8.53;;;6.90;;
16524;SDS011;8375;33.594;-117.718;2022-12-10T14:37:23;12.43;;;8.87;;
16524;SDS011;8375;33.594;-117.718;2022-12-10T14:39:54;9.40;;;8.03;;
16524;SDS011;8375;33.594;-117.718;2022-12-10T14:42:23;11.00;;;7.93;;
16524;SDS011;8375;33.594;-117.718;2022-12-10T14:44:55;10.53;;;7.90;;
16524;SDS011;8375;33.594;-117.718;2022-12-10T14:47:26;10.30;;;7.63;;
16524;SDS011;8375;33.594;-117.718;2022-12-10T14:50:04;9.97;;;7.07;;
16524;SDS011;8375;33.594;-117.718;2022-12-10T14:52:41;8.43;;;6.77;;
16524;SDS011;8375;33.594;-117.718;2022-12-10T14:55:14;7.87;;;6.63;;
16524;SDS011;8375;33.594;-117.718;2022-12-10T14:57:48;7.80;;;6.73;;
16524;SDS011;8375;33.594;-117.718;2022-12-10T15:00:21;11.03;;;7.40;;
16524;SDS011;8375;33.594;-117.718;2022-12-10T15:02:51;7.23;;;6.53;;
16524;SDS011;8375;33.594;-117.718;2022-12-10T15:05:24;8.20;;;7.40;;
16524;SDS011;8375;33.594;-117.718;2022-12-10T15:07:56;8.90;;;7.13;;
16524;SDS011;8375;33.594;-117.718;2022-12-10T15:10:29;7.90;;;7.10;;
16524;SDS011;8375;33.594;-117.718;2022-12-10T15:13:03;9.97;;;7.30;;
16524;SDS011;8375;33.594;-117.718;2022-12-10T15:15:33;10.33;;;6.53;;
16524;SDS011;8375;33.594;-117.718;2022-12-10T15:18:09;7.87;;;6.27;;
16524;SDS011;8375;33.594;-117.718;2022-12-10T15:20:45;8.20;;;6.23;;
16524;SDS011;8375;33.594;-117.718;2022-12-10T15:23:19;8.83;;;6.37;;
16524;SDS011;8375;33.594;-117.718;2022-12-10T15:26:02;10.47;;;6.57;;
16524;SDS011;8375;33.594;-117.718;2022-12-10T15:28:38;6.93;;;5.37;;
16524;SDS011;8375;33.594;-117.718;2022-12-10T15:31:12;7.53;;;5.60;;
16524;SDS011;8375;33.594;-117.718;2022-12-10T15:33:44;8.23;;;6.13;;
16524;SDS011;8375;33.594;-117.718;2022-12-10T15:36:16;7.60;;;5.77;;
16524;SDS011;8375;33.594;-117.718;2022-12-10T15:38:52;8.17;;;5.83;;
16524;SDS011;8375;33.594;-117.718;2022-12-10T15:41:22;6.23;;;5.63;;
16524;SDS011;8375;33.594;-117.718;2022-12-10T15:44:00;6.43;;;5.50;;
16524;SDS011;8375;33.594;-117.718;2022-12-10T15:46:31;6.37;;;5.40;;
16524;SDS011;8375;33.594;-117.718;2022-12-10T15:48:59;6.67;;;5.83;;
16524;SDS011;8375;33.594;-117.718;2022-12-10T15:51:28;6.57;;;5.90;;
16524;SDS011;8375;33.594;-117.718;2022-12-10T15:53:58;6.17;;;5.23;;
16524;SDS011;8375;33.594;-117.718;2022-12-10T15:56:27;6.27;;;5.63;;
16524;SDS011;8375;33.594;-117.718;2022-12-10T15:58:55;7.63;;;5.67;;
16524;SDS011;8375;33.594;-117.718;2022-12-10T16:01:24;6.03;;;5.43;;
16524;SDS011;8375;33.594;-117.718;2022-12-10T16:03:52;8.63;;;6.43;;